SHU5681 UHSS-UHWW
Flight info
| Callsign | SHU5681 |
|---|---|
| Flight time | 1h 29m |
| Altitude | 38000 |
| Route | KENOM B919 UTAGI W906 TUNET W293 BEMOR W293 DAGES |
| Aircraft | A319/M-SDE3FGHIRWY/LB1 |
Departure
| Time | 2026-05-04 17:33 |
|---|---|
| Airport | Yuzhno-Sakhalinsk International Airport (UHSS) |
Arrival
| Time | 2026-05-04 19:02 |
|---|---|
| Airport | Vladivostok International Airport (UHWW) |
| Time | Latitude | Longitude | Altitude | Speed | Heading |
|---|---|---|---|---|---|
| 2026-05-04 17:06 | 46.88730 | 142.72215 | 77 ft | 0 kts | 92° |
| 2026-05-04 17:23 | 46.88731 | 142.72151 | 72 ft | 3 kts | 96° |
| 2026-05-04 17:23 | 46.88734 | 142.72120 | 68 ft | 3 kts | 104° |
| 2026-05-04 17:23 | 46.88740 | 142.72087 | 70 ft | 0 kts | 107° |
| 2026-05-04 17:27 | 46.88726 | 142.72094 | 71 ft | 2 kts | 186° |
| 2026-05-04 17:27 | 46.88698 | 142.72014 | 77 ft | 7 kts | 263° |
| 2026-05-04 17:28 | 46.88696 | 142.71843 | 78 ft | 9 kts | 270° |
| 2026-05-04 17:29 | 46.88517 | 142.71739 | 73 ft | 13 kts | 181° |
| 2026-05-04 17:29 | 46.88159 | 142.71732 | 81 ft | 21 kts | 181° |
| 2026-05-04 17:30 | 46.87690 | 142.71724 | 72 ft | 24 kts | 180° |
| 2026-05-04 17:31 | 46.87339 | 142.71713 | 72 ft | 25 kts | 181° |
| 2026-05-04 17:31 | 46.87091 | 142.71744 | 84 ft | 7 kts | 141° |
| 2026-05-04 17:32 | 46.87046 | 142.71721 | 82 ft | 7 kts | 313° |
| 2026-05-04 17:33 | 46.88487 | 142.71744 | 88 ft | 164 kts | 0° |
| 2026-05-04 17:33 | 46.89648 | 142.71776 | 724 ft | 164 kts | 1° |
| 2026-05-04 17:34 | 46.93001 | 142.71128 | 3102 ft | 159 kts | 343° |
| 2026-05-04 17:34 | 46.94083 | 142.70794 | 3783 ft | 162 kts | 343° |
| 2026-05-04 17:35 | 46.98068 | 142.69394 | 5012 ft | 234 kts | 344° |
| 2026-05-04 17:35 | 47.01368 | 142.68262 | 6806 ft | 248 kts | 345° |
| 2026-05-04 17:35 | 47.03058 | 142.67690 | 7819 ft | 250 kts | 345° |
| 2026-05-04 17:36 | 47.04754 | 142.67088 | 8842 ft | 252 kts | 341° |
| 2026-05-04 17:36 | 47.06258 | 142.65774 | 9795 ft | 256 kts | 316° |
| 2026-05-04 17:36 | 47.07212 | 142.63542 | 10663 ft | 266 kts | 291° |
| 2026-05-04 17:36 | 47.07363 | 142.60796 | 11550 ft | 280 kts | 265° |
| 2026-05-04 17:37 | 47.06730 | 142.57977 | 12113 ft | 304 kts | 253° |
| 2026-05-04 17:37 | 47.05902 | 142.55002 | 12569 ft | 323 kts | 252° |
| 2026-05-04 17:37 | 47.05009 | 142.51939 | 13347 ft | 330 kts | 251° |
| 2026-05-04 17:37 | 47.04091 | 142.48834 | 14132 ft | 333 kts | 251° |
| 2026-05-04 17:38 | 47.03168 | 142.45701 | 14924 ft | 336 kts | 251° |
| 2026-05-04 17:38 | 47.02244 | 142.42538 | 15728 ft | 338 kts | 251° |
| 2026-05-04 17:38 | 47.01323 | 142.39346 | 16507 ft | 341 kts | 251° |
| 2026-05-04 17:38 | 47.00402 | 142.36131 | 17298 ft | 344 kts | 251° |
| 2026-05-04 17:39 | 46.98536 | 142.29622 | 18748 ft | 349 kts | 250° |
| 2026-05-04 17:39 | 46.97592 | 142.26338 | 19446 ft | 350 kts | 250° |
| 2026-05-04 17:39 | 46.96641 | 142.23049 | 20166 ft | 351 kts | 249° |
| 2026-05-04 17:40 | 46.95685 | 142.19752 | 20884 ft | 352 kts | 249° |
| 2026-05-04 17:40 | 46.94724 | 142.16446 | 21588 ft | 354 kts | 248° |
| 2026-05-04 17:40 | 46.93761 | 142.13132 | 22306 ft | 355 kts | 248° |
| 2026-05-04 17:40 | 46.92791 | 142.09796 | 23023 ft | 357 kts | 248° |
| 2026-05-04 17:41 | 46.91819 | 142.06447 | 23648 ft | 358 kts | 248° |
| 2026-05-04 17:41 | 46.90845 | 142.03085 | 24184 ft | 361 kts | 248° |
| 2026-05-04 17:41 | 46.89861 | 141.99695 | 24699 ft | 364 kts | 248° |
| 2026-05-04 17:41 | 46.88866 | 141.96275 | 25201 ft | 367 kts | 248° |
| 2026-05-04 17:42 | 46.87862 | 141.92831 | 25681 ft | 370 kts | 248° |
| 2026-05-04 17:42 | 46.86847 | 141.89360 | 26160 ft | 373 kts | 248° |
| 2026-05-04 17:42 | 46.86170 | 141.87044 | 26480 ft | 375 kts | 248° |
| 2026-05-04 17:42 | 46.85140 | 141.83530 | 26944 ft | 378 kts | 248° |
| 2026-05-04 17:43 | 46.84323 | 141.79877 | 27402 ft | 380 kts | 257° |
| 2026-05-04 17:43 | 46.83886 | 141.74773 | 27970 ft | 385 kts | 265° |
| 2026-05-04 17:43 | 46.83676 | 141.70856 | 28386 ft | 389 kts | 265° |
| 2026-05-04 17:43 | 46.83461 | 141.66899 | 28820 ft | 392 kts | 265° |
| 2026-05-04 17:44 | 46.83315 | 141.64214 | 29117 ft | 394 kts | 265° |
| 2026-05-04 17:44 | 46.83088 | 141.60210 | 29540 ft | 397 kts | 265° |
| 2026-05-04 17:44 | 46.82856 | 141.56176 | 29922 ft | 400 kts | 265° |
| 2026-05-04 17:44 | 46.82624 | 141.52154 | 30239 ft | 403 kts | 265° |
| 2026-05-04 17:45 | 46.82388 | 141.48055 | 30547 ft | 406 kts | 265° |
| 2026-05-04 17:45 | 46.82150 | 141.43926 | 30848 ft | 410 kts | 265° |
| 2026-05-04 17:45 | 46.81910 | 141.39768 | 31141 ft | 413 kts | 265° |
| 2026-05-04 17:45 | 46.81664 | 141.35577 | 31452 ft | 415 kts | 265° |
| 2026-05-04 17:46 | 46.81416 | 141.31370 | 31822 ft | 416 kts | 265° |
| 2026-05-04 17:46 | 46.81166 | 141.27154 | 32196 ft | 417 kts | 265° |
| 2026-05-04 17:46 | 46.80914 | 141.22934 | 32580 ft | 418 kts | 265° |
| 2026-05-04 17:46 | 46.80664 | 141.18716 | 32972 ft | 418 kts | 265° |
| 2026-05-04 17:47 | 46.80412 | 141.14484 | 33362 ft | 418 kts | 265° |
| 2026-05-04 17:47 | 46.80158 | 141.10251 | 33762 ft | 418 kts | 265° |
| 2026-05-04 17:47 | 46.79902 | 141.06024 | 34092 ft | 418 kts | 265° |
| 2026-05-04 17:47 | 46.79644 | 141.01855 | 34422 ft | 418 kts | 265° |
| 2026-05-04 17:48 | 46.79381 | 140.97627 | 34751 ft | 418 kts | 265° |
| 2026-05-04 17:48 | 46.79120 | 140.93400 | 35070 ft | 418 kts | 265° |
| 2026-05-04 17:48 | 46.78862 | 140.89181 | 35390 ft | 418 kts | 265° |
| 2026-05-04 17:48 | 46.78599 | 140.84956 | 35665 ft | 418 kts | 264° |
| 2026-05-04 17:49 | 46.78063 | 140.76565 | 35740 ft | 412 kts | 264° |
| 2026-05-04 17:49 | 46.77530 | 140.68270 | 35745 ft | 410 kts | 264° |
| 2026-05-04 17:50 | 46.76996 | 140.59998 | 35742 ft | 410 kts | 264° |
| 2026-05-04 17:50 | 46.76455 | 140.51729 | 35742 ft | 409 kts | 264° |
| 2026-05-04 17:51 | 46.75905 | 140.43464 | 35740 ft | 409 kts | 264° |
| 2026-05-04 17:51 | 46.75352 | 140.35196 | 35734 ft | 409 kts | 264° |
| 2026-05-04 17:52 | 46.74800 | 140.26936 | 35740 ft | 409 kts | 264° |
| 2026-05-04 17:52 | 46.74235 | 140.18730 | 35743 ft | 409 kts | 264° |
| 2026-05-04 17:53 | 46.73652 | 140.10482 | 35742 ft | 409 kts | 264° |
| 2026-05-04 17:53 | 46.72980 | 140.02247 | 35743 ft | 409 kts | 258° |
| 2026-05-04 17:54 | 46.70954 | 139.94520 | 35744 ft | 410 kts | 245° |
| 2026-05-04 17:54 | 46.68408 | 139.87072 | 35735 ft | 410 kts | 245° |
| 2026-05-04 17:55 | 46.65882 | 139.79669 | 35737 ft | 410 kts | 245° |
| 2026-05-04 17:55 | 46.63334 | 139.72238 | 35738 ft | 410 kts | 245° |
| 2026-05-04 17:56 | 46.60780 | 139.64803 | 35744 ft | 410 kts | 245° |
| 2026-05-04 17:56 | 46.58218 | 139.57384 | 35738 ft | 410 kts | 245° |
| 2026-05-04 17:57 | 46.55658 | 139.49975 | 35744 ft | 410 kts | 245° |
| 2026-05-04 17:57 | 46.53088 | 139.42566 | 35745 ft | 410 kts | 245° |
| 2026-05-04 17:58 | 46.50519 | 139.35180 | 35743 ft | 410 kts | 245° |
| 2026-05-04 17:58 | 46.47933 | 139.27784 | 35744 ft | 411 kts | 245° |
| 2026-05-04 17:59 | 46.45349 | 139.20391 | 35735 ft | 411 kts | 245° |
| 2026-05-04 18:00 | 46.41309 | 139.09405 | 35740 ft | 414 kts | 237° |
| 2026-05-04 18:00 | 46.37850 | 139.02792 | 35743 ft | 414 kts | 235° |
| 2026-05-04 18:01 | 46.34347 | 138.96147 | 35749 ft | 415 kts | 235° |
| 2026-05-04 18:01 | 46.30844 | 138.89512 | 35732 ft | 415 kts | 236° |
| 2026-05-04 18:02 | 46.25569 | 138.79544 | 35746 ft | 416 kts | 235° |
| 2026-05-04 18:02 | 46.22078 | 138.72959 | 35756 ft | 415 kts | 235° |
| 2026-05-04 18:03 | 46.18558 | 138.66347 | 35754 ft | 415 kts | 235° |
| 2026-05-04 18:03 | 46.15031 | 138.59736 | 35758 ft | 416 kts | 235° |
| 2026-05-04 18:04 | 46.11502 | 138.53119 | 35760 ft | 416 kts | 235° |
| 2026-05-04 18:05 | 46.06198 | 138.43221 | 35760 ft | 416 kts | 235° |
| 2026-05-04 18:05 | 46.02650 | 138.36629 | 35750 ft | 416 kts | 235° |
| 2026-05-04 18:06 | 45.97328 | 138.26760 | 35756 ft | 416 kts | 235° |
| 2026-05-04 18:06 | 45.93778 | 138.20187 | 35758 ft | 416 kts | 235° |
| 2026-05-04 18:07 | 45.90240 | 138.13657 | 35755 ft | 416 kts | 235° |
| 2026-05-04 18:07 | 45.86647 | 138.07133 | 35752 ft | 417 kts | 234° |
| 2026-05-04 18:08 | 45.82949 | 138.00702 | 35756 ft | 418 kts | 234° |
| 2026-05-04 18:08 | 45.79227 | 137.94298 | 35766 ft | 418 kts | 234° |
| 2026-05-04 18:09 | 45.71821 | 137.81460 | 35756 ft | 418 kts | 234° |
| 2026-05-04 18:10 | 45.68120 | 137.75035 | 35759 ft | 418 kts | 234° |
| 2026-05-04 18:10 | 45.64408 | 137.68628 | 35770 ft | 419 kts | 234° |
| 2026-05-04 18:11 | 45.60694 | 137.62224 | 35769 ft | 419 kts | 234° |
| 2026-05-04 18:11 | 45.56961 | 137.55825 | 35778 ft | 419 kts | 234° |
| 2026-05-04 18:12 | 45.53252 | 137.49478 | 35782 ft | 419 kts | 234° |
| 2026-05-04 18:12 | 45.49521 | 137.43097 | 35778 ft | 419 kts | 234° |
| 2026-05-04 18:13 | 45.45791 | 137.36718 | 35780 ft | 419 kts | 234° |
| 2026-05-04 18:14 | 45.40175 | 137.27160 | 35773 ft | 420 kts | 234° |
| 2026-05-04 18:14 | 45.36424 | 137.20786 | 35781 ft | 420 kts | 234° |
| 2026-05-04 18:15 | 45.28933 | 137.08122 | 35777 ft | 420 kts | 234° |
| 2026-05-04 18:16 | 45.25160 | 137.01776 | 35785 ft | 420 kts | 234° |
| 2026-05-04 18:16 | 45.21392 | 136.95441 | 35788 ft | 420 kts | 234° |
| 2026-05-04 18:17 | 45.15722 | 136.85942 | 35778 ft | 421 kts | 234° |
| 2026-05-04 18:18 | 45.10046 | 136.76455 | 35788 ft | 421 kts | 234° |
| 2026-05-04 18:18 | 45.06259 | 136.70136 | 35795 ft | 420 kts | 234° |
| 2026-05-04 18:19 | 45.00587 | 136.60723 | 35786 ft | 421 kts | 235° |
| 2026-05-04 18:19 | 44.96783 | 136.54429 | 35801 ft | 421 kts | 235° |
| 2026-05-04 18:20 | 44.92980 | 136.48143 | 35809 ft | 421 kts | 235° |
| 2026-05-04 18:20 | 44.89177 | 136.41862 | 35816 ft | 421 kts | 235° |
| 2026-05-04 18:21 | 44.85367 | 136.35592 | 35807 ft | 421 kts | 235° |
| 2026-05-04 18:21 | 44.81611 | 136.29287 | 35810 ft | 417 kts | 240° |
| 2026-05-04 18:22 | 44.78619 | 136.22351 | 35821 ft | 414 kts | 245° |
| 2026-05-04 18:22 | 44.75698 | 136.15425 | 35823 ft | 414 kts | 245° |
| 2026-05-04 18:23 | 44.72741 | 136.08464 | 35802 ft | 414 kts | 245° |
| 2026-05-04 18:23 | 44.69782 | 136.01502 | 35818 ft | 415 kts | 245° |
| 2026-05-04 18:24 | 44.66820 | 135.94539 | 35825 ft | 415 kts | 245° |
| 2026-05-04 18:24 | 44.63857 | 135.87570 | 35841 ft | 416 kts | 245° |
| 2026-05-04 18:25 | 44.60880 | 135.80605 | 35835 ft | 416 kts | 244° |
| 2026-05-04 18:25 | 44.57896 | 135.73654 | 35836 ft | 416 kts | 244° |
| 2026-05-04 18:26 | 44.54911 | 135.66699 | 35854 ft | 416 kts | 244° |
| 2026-05-04 18:26 | 44.51923 | 135.59752 | 35852 ft | 416 kts | 244° |
| 2026-05-04 18:27 | 44.48935 | 135.52811 | 35860 ft | 416 kts | 244° |
| 2026-05-04 18:27 | 44.45960 | 135.45934 | 35848 ft | 416 kts | 244° |
| 2026-05-04 18:28 | 44.42953 | 135.39025 | 35857 ft | 416 kts | 244° |
| 2026-05-04 18:28 | 44.39947 | 135.32110 | 35856 ft | 416 kts | 244° |
| 2026-05-04 18:29 | 44.36935 | 135.25197 | 35857 ft | 416 kts | 244° |
| 2026-05-04 18:29 | 44.33921 | 135.18280 | 35843 ft | 417 kts | 244° |
| 2026-05-04 18:30 | 44.29888 | 135.09072 | 35860 ft | 417 kts | 244° |
| 2026-05-04 18:31 | 44.26348 | 135.01003 | 35870 ft | 417 kts | 245° |
| 2026-05-04 18:31 | 44.23503 | 134.94042 | 35873 ft | 415 kts | 247° |
| 2026-05-04 18:32 | 44.20720 | 134.86991 | 35879 ft | 415 kts | 247° |
| 2026-05-04 18:32 | 44.18385 | 134.81137 | 35877 ft | 415 kts | 246° |
| 2026-05-04 18:33 | 44.15540 | 134.74141 | 35879 ft | 415 kts | 246° |
| 2026-05-04 18:33 | 44.12678 | 134.67165 | 35869 ft | 415 kts | 246° |
| 2026-05-04 18:34 | 44.09820 | 134.60189 | 35864 ft | 415 kts | 246° |
| 2026-05-04 18:34 | 44.06967 | 134.53216 | 35875 ft | 415 kts | 246° |
| 2026-05-04 18:35 | 44.04106 | 134.46245 | 35875 ft | 415 kts | 246° |
| 2026-05-04 18:35 | 44.01256 | 134.39321 | 35884 ft | 415 kts | 246° |
| 2026-05-04 18:36 | 43.98393 | 134.32354 | 35864 ft | 415 kts | 246° |
| 2026-05-04 18:36 | 43.95521 | 134.25389 | 35881 ft | 415 kts | 246° |
| 2026-05-04 18:37 | 43.92639 | 134.18448 | 35894 ft | 415 kts | 245° |
| 2026-05-04 18:37 | 43.89743 | 134.11512 | 35898 ft | 416 kts | 245° |
| 2026-05-04 18:38 | 43.86849 | 134.04567 | 35884 ft | 415 kts | 245° |
| 2026-05-04 18:38 | 43.83958 | 133.97626 | 35757 ft | 417 kts | 245° |
| 2026-05-04 18:38 | 43.82488 | 133.94101 | 34656 ft | 430 kts | 245° |
| 2026-05-04 18:39 | 43.80982 | 133.90507 | 34168 ft | 427 kts | 245° |
| 2026-05-04 18:39 | 43.79529 | 133.86970 | 33766 ft | 419 kts | 250° |
| 2026-05-04 18:39 | 43.78447 | 133.83290 | 33194 ft | 408 kts | 259° |
| 2026-05-04 18:39 | 43.77812 | 133.79520 | 32654 ft | 398 kts | 268° |
| 2026-05-04 18:40 | 43.77398 | 133.75751 | 32126 ft | 394 kts | 268° |
| 2026-05-04 18:40 | 43.76976 | 133.72022 | 31612 ft | 390 kts | 268° |
| 2026-05-04 18:40 | 43.76557 | 133.68380 | 31110 ft | 387 kts | 268° |
| 2026-05-04 18:40 | 43.76133 | 133.64721 | 30608 ft | 384 kts | 269° |
| 2026-05-04 18:41 | 43.75714 | 133.61098 | 30113 ft | 380 kts | 269° |
| 2026-05-04 18:41 | 43.75296 | 133.57499 | 29555 ft | 377 kts | 269° |
| 2026-05-04 18:41 | 43.74883 | 133.53954 | 29076 ft | 371 kts | 269° |
| 2026-05-04 18:41 | 43.74476 | 133.50453 | 28601 ft | 366 kts | 269° |
| 2026-05-04 18:42 | 43.74074 | 133.47001 | 28113 ft | 361 kts | 269° |
| 2026-05-04 18:42 | 43.73677 | 133.43591 | 27674 ft | 358 kts | 269° |
| 2026-05-04 18:42 | 43.73284 | 133.40209 | 27217 ft | 354 kts | 269° |
| 2026-05-04 18:42 | 43.72893 | 133.36864 | 26780 ft | 351 kts | 269° |
| 2026-05-04 18:43 | 43.72505 | 133.33546 | 26341 ft | 348 kts | 268° |
| 2026-05-04 18:43 | 43.72119 | 133.30256 | 25906 ft | 346 kts | 268° |
| 2026-05-04 18:43 | 43.71732 | 133.26982 | 25478 ft | 343 kts | 268° |
| 2026-05-04 18:43 | 43.71346 | 133.23735 | 25053 ft | 341 kts | 268° |
| 2026-05-04 18:44 | 43.70961 | 133.20512 | 24640 ft | 339 kts | 268° |
| 2026-05-04 18:44 | 43.70706 | 133.18386 | 24360 ft | 337 kts | 268° |
| 2026-05-04 18:44 | 43.70195 | 133.14132 | 23804 ft | 334 kts | 268° |
| 2026-05-04 18:44 | 43.69816 | 133.10984 | 23376 ft | 331 kts | 268° |
| 2026-05-04 18:45 | 43.69439 | 133.07857 | 22923 ft | 328 kts | 268° |
| 2026-05-04 18:45 | 43.69065 | 133.04760 | 22487 ft | 324 kts | 268° |
| 2026-05-04 18:45 | 43.68695 | 133.01706 | 22074 ft | 321 kts | 268° |
| 2026-05-04 18:45 | 43.68328 | 132.98675 | 21651 ft | 318 kts | 268° |
| 2026-05-04 18:46 | 43.67965 | 132.95674 | 21235 ft | 316 kts | 268° |
| 2026-05-04 18:46 | 43.67603 | 132.92696 | 20790 ft | 313 kts | 268° |
| 2026-05-04 18:46 | 43.67241 | 132.89739 | 20392 ft | 311 kts | 268° |
| 2026-05-04 18:46 | 43.66880 | 132.86799 | 19976 ft | 310 kts | 268° |
| 2026-05-04 18:47 | 43.66526 | 132.83908 | 19559 ft | 309 kts | 268° |
| 2026-05-04 18:47 | 43.66169 | 132.80984 | 19142 ft | 308 kts | 267° |
| 2026-05-04 18:47 | 43.65625 | 132.78088 | 18702 ft | 314 kts | 259° |
| 2026-05-04 18:47 | 43.64933 | 132.75222 | 18285 ft | 315 kts | 259° |
| 2026-05-04 18:48 | 43.64245 | 132.72350 | 17828 ft | 315 kts | 259° |
| 2026-05-04 18:48 | 43.63558 | 132.69479 | 17388 ft | 314 kts | 259° |
| 2026-05-04 18:48 | 43.62870 | 132.66611 | 16971 ft | 313 kts | 259° |
| 2026-05-04 18:48 | 43.62185 | 132.63764 | 16546 ft | 312 kts | 259° |
| 2026-05-04 18:49 | 43.61501 | 132.60920 | 16131 ft | 312 kts | 259° |
| 2026-05-04 18:49 | 43.60819 | 132.58090 | 15721 ft | 311 kts | 258° |
| 2026-05-04 18:49 | 43.60144 | 132.55295 | 15296 ft | 310 kts | 258° |
| 2026-05-04 18:49 | 43.59462 | 132.52479 | 14901 ft | 309 kts | 258° |
| 2026-05-04 18:50 | 43.58782 | 132.49668 | 14485 ft | 308 kts | 258° |
| 2026-05-04 18:50 | 43.58103 | 132.46860 | 14065 ft | 308 kts | 258° |
| 2026-05-04 18:50 | 43.57425 | 132.44063 | 13637 ft | 308 kts | 258° |
| 2026-05-04 18:50 | 43.56745 | 132.41266 | 13187 ft | 307 kts | 258° |
| 2026-05-04 18:51 | 43.56068 | 132.38489 | 12754 ft | 304 kts | 258° |
| 2026-05-04 18:51 | 43.55395 | 132.35739 | 12330 ft | 301 kts | 257° |
| 2026-05-04 18:51 | 43.54729 | 132.33016 | 11893 ft | 299 kts | 257° |
| 2026-05-04 18:51 | 43.54069 | 132.30316 | 11480 ft | 295 kts | 257° |
| 2026-05-04 18:52 | 43.53418 | 132.27646 | 11065 ft | 293 kts | 256° |
| 2026-05-04 18:52 | 43.52770 | 132.24989 | 10642 ft | 291 kts | 256° |
| 2026-05-04 18:52 | 43.52124 | 132.22347 | 10220 ft | 290 kts | 256° |
| 2026-05-04 18:52 | 43.51484 | 132.19747 | 9985 ft | 281 kts | 256° |
| 2026-05-04 18:53 | 43.50865 | 132.17246 | 9796 ft | 272 kts | 255° |
| 2026-05-04 18:53 | 43.50260 | 132.14801 | 9637 ft | 268 kts | 255° |
| 2026-05-04 18:53 | 43.49660 | 132.12370 | 9386 ft | 267 kts | 255° |
| 2026-05-04 18:53 | 43.49062 | 132.09971 | 9048 ft | 264 kts | 253° |
| 2026-05-04 18:54 | 43.48238 | 132.07745 | 8678 ft | 257 kts | 245° |
| 2026-05-04 18:54 | 43.47384 | 132.05630 | 8337 ft | 249 kts | 245° |
| 2026-05-04 18:54 | 43.46569 | 132.03613 | 8071 ft | 239 kts | 245° |
| 2026-05-04 18:54 | 43.45780 | 132.01654 | 7801 ft | 228 kts | 245° |
| 2026-05-04 18:55 | 43.45027 | 131.99785 | 7496 ft | 218 kts | 245° |
| 2026-05-04 18:55 | 43.43595 | 131.96229 | 6917 ft | 210 kts | 245° |
| 2026-05-04 18:55 | 43.42890 | 131.94475 | 6626 ft | 209 kts | 245° |
| 2026-05-04 18:56 | 43.42187 | 131.92728 | 6329 ft | 208 kts | 244° |
| 2026-05-04 18:56 | 43.41487 | 131.90992 | 6029 ft | 207 kts | 244° |
| 2026-05-04 18:56 | 43.40792 | 131.89263 | 5731 ft | 206 kts | 243° |
| 2026-05-04 18:56 | 43.39944 | 131.87713 | 5435 ft | 204 kts | 218° |
| 2026-05-04 18:57 | 43.38591 | 131.87178 | 5143 ft | 210 kts | 180° |
| 2026-05-04 18:57 | 43.37211 | 131.87908 | 4837 ft | 216 kts | 157° |
| 2026-05-04 18:57 | 43.35910 | 131.88910 | 4497 ft | 213 kts | 157° |
| 2026-05-04 18:57 | 43.34630 | 131.89902 | 4182 ft | 209 kts | 157° |
| 2026-05-04 18:58 | 43.33379 | 131.90871 | 3878 ft | 205 kts | 157° |
| 2026-05-04 18:58 | 43.32153 | 131.91848 | 3570 ft | 205 kts | 152° |
| 2026-05-04 18:58 | 43.31341 | 131.93477 | 3257 ft | 220 kts | 108° |
| 2026-05-04 18:58 | 43.31502 | 131.95571 | 2960 ft | 230 kts | 75° |
| 2026-05-04 18:59 | 43.32205 | 131.97530 | 2640 ft | 229 kts | 64° |
| 2026-05-04 18:59 | 43.33173 | 131.99252 | 2347 ft | 226 kts | 55° |
| 2026-05-04 18:59 | 43.34026 | 132.01002 | 2050 ft | 215 kts | 64° |
| 2026-05-04 18:59 | 43.34752 | 132.02747 | 1773 ft | 205 kts | 65° |
| 2026-05-04 19:00 | 43.35418 | 132.04387 | 1510 ft | 186 kts | 65° |
| 2026-05-04 19:00 | 43.36014 | 132.05857 | 1269 ft | 167 kts | 64° |
| 2026-05-04 19:00 | 43.36553 | 132.07191 | 1029 ft | 152 kts | 64° |
| 2026-05-04 19:00 | 43.37043 | 132.08409 | 828 ft | 141 kts | 63° |
| 2026-05-04 19:01 | 43.37511 | 132.09544 | 620 ft | 133 kts | 61° |
| 2026-05-04 19:01 | 43.37946 | 132.10644 | 463 ft | 129 kts | 60° |
| 2026-05-04 19:01 | 43.38379 | 132.11718 | 312 ft | 128 kts | 59° |
| 2026-05-04 19:01 | 43.38819 | 132.12781 | 135 ft | 128 kts | 59° |
| 2026-05-04 19:02 | 43.39232 | 132.13818 | 65 ft | 112 kts | 61° |
| 2026-05-04 19:02 | 43.39532 | 132.14572 | 65 ft | 67 kts | 61° |
| 2026-05-04 19:02 | 43.39745 | 132.15097 | 64 ft | 59 kts | 62° |
| 2026-05-04 19:02 | 43.39911 | 132.15515 | 66 ft | 41 kts | 61° |
| 2026-05-04 19:03 | 43.40044 | 132.15845 | 63 ft | 38 kts | 61° |
| 2026-05-04 19:03 | 43.40167 | 132.16147 | 66 ft | 35 kts | 60° |
| 2026-05-04 19:03 | 43.40283 | 132.16431 | 63 ft | 33 kts | 60° |
| 2026-05-04 19:03 | 43.40362 | 132.16624 | 67 ft | 18 kts | 61° |
| 2026-05-04 19:04 | 43.40416 | 132.16756 | 63 ft | 8 kts | 60° |
| 2026-05-04 19:04 | 43.40436 | 132.16838 | 68 ft | 10 kts | 97° |
| 2026-05-04 19:04 | 43.40380 | 132.16894 | 63 ft | 10 kts | 152° |
| 2026-05-04 19:04 | 43.40314 | 132.16942 | 64 ft | 11 kts | 152° |
| 2026-05-04 19:05 | 43.40241 | 132.16995 | 66 ft | 13 kts | 152° |
| 2026-05-04 19:05 | 43.40159 | 132.17054 | 68 ft | 14 kts | 153° |
| 2026-05-04 19:05 | 43.40074 | 132.17086 | 65 ft | 12 kts | 201° |
| 2026-05-04 19:05 | 43.40028 | 132.16989 | 65 ft | 13 kts | 241° |
| 2026-05-04 19:06 | 43.39981 | 132.16873 | 70 ft | 15 kts | 241° |
| 2026-05-04 19:06 | 43.39929 | 132.16743 | 66 ft | 16 kts | 240° |
| 2026-05-04 19:06 | 43.39871 | 132.16600 | 70 ft | 18 kts | 242° |
| 2026-05-04 19:06 | 43.39833 | 132.16501 | 67 ft | 12 kts | 241° |
| 2026-05-04 19:07 | 43.39797 | 132.16419 | 69 ft | 9 kts | 241° |
| 2026-05-04 19:07 | 43.39751 | 132.16374 | 61 ft | 9 kts | 172° |
| 2026-05-04 19:07 | 43.39708 | 132.16407 | 66 ft | 2 kts | 151° |
| 2026-05-04 19:07 | 43.39693 | 132.16417 | 65 ft | 3 kts | 152° |
| 2026-05-04 19:08 | 43.39688 | 132.16421 | 67 ft | 0 kts | 152° |